Time;durP1;ratioP1;P1;durP2;ratioP2;P2;SDS_P1;SDS_P2;PMS_P1;PMS_P2;Temp;Humidity;BMP_temperature;BMP_pressure;BME280_temperature;BME280_humidity;BME280_pressure;Samples;Min_cycle;Max_cycle;Signal;HPM_P1;HPM_P2
2024/01/30 00:01:54;;;;;;;8.20;5.60;;;4.80;99.90;;;;;;5034269;28;20209;-53
2024/01/30 00:04:22;;;;;;;7.43;4.63;;;4.80;99.90;;;;;;5034074;28;20730;-53
2024/01/30 00:06:49;;;;;;;8.37;5.07;;;4.80;99.90;;;;;;5033806;28;20206;-55
2024/01/30 00:09:16;;;;;;;7.17;5.20;;;4.70;99.90;;;;;;5034335;28;20221;-54
2024/01/30 00:11:43;;;;;;;9.90;5.27;;;4.60;99.90;;;;;;5034061;28;20643;-54
2024/01/30 00:14:09;;;;;;;6.93;5.17;;;4.50;99.90;;;;;;5033776;28;20234;-55
2024/01/30 00:16:36;;;;;;;8.07;5.47;;;4.30;99.90;;;;;;5033852;28;20459;-53
2024/01/30 00:19:02;;;;;;;8.50;5.23;;;4.30;99.90;;;;;;5033881;28;20302;-54
2024/01/30 00:21:30;;;;;;;9.43;5.60;;;4.20;99.90;;;;;;5033588;28;20289;-54
2024/01/30 00:23:57;;;;;;;7.83;5.20;;;4.10;99.90;;;;;;5033517;28;20226;-54
2024/01/30 00:26:23;;;;;;;7.00;5.30;;;4.10;99.90;;;;;;5033621;28;20202;-52
2024/01/30 00:28:50;;;;;;;8.50;5.30;;;4.00;99.90;;;;;;5034010;28;20210;-55
2024/01/30 00:31:17;;;;;;;7.90;5.27;;;3.90;99.90;;;;;;5033729;28;20213;-54
2024/01/30 00:33:43;;;;;;;8.07;5.10;;;3.80;99.90;;;;;;5033953;28;20280;-54
2024/01/30 00:36:10;;;;;;;8.63;5.30;;;3.80;99.90;;;;;;5033378;28;20206;-55
2024/01/30 00:38:40;;;;;;;7.33;5.80;;;3.80;99.90;;;;;;5033226;28;20234;-54
2024/01/30 00:41:08;;;;;;;7.57;5.10;;;3.70;99.90;;;;;;5033094;28;20660;-54
2024/01/30 00:43:35;;;;;;;6.73;4.93;;;3.80;99.90;;;;;;5024917;28;20669;-52
2024/01/30 00:46:02;;;;;;;6.27;4.80;;;3.80;99.90;;;;;;5033097;28;20202;-54
2024/01/30 00:48:28;;;;;;;7.27;5.13;;;3.80;99.90;;;;;;5032418;28;20209;-54
2024/01/30 00:50:55;;;;;;;5.37;4.63;;;3.90;99.90;;;;;;5032758;28;20202;-53
2024/01/30 00:53:22;;;;;;;8.27;4.93;;;3.80;99.90;;;;;;5032791;28;20237;-53
2024/01/30 00:55:50;;;;;;;6.37;4.43;;;3.80;99.90;;;;;;5033292;28;20210;-55
2024/01/30 00:58:18;;;;;;;7.27;4.73;;;3.80;99.90;;;;;;5032532;28;20202;-55
2024/01/30 01:00:45;;;;;;;5.97;4.20;;;3.80;99.90;;;;;;5032719;28;20232;-53
2024/01/30 01:03:13;;;;;;;8.00;4.47;;;3.90;99.90;;;;;;5032494;28;20230;-54
2024/01/30 01:05:40;;;;;;;6.53;4.30;;;3.90;99.90;;;;;;5032693;28;20297;-54
2024/01/30 01:08:07;;;;;;;5.93;4.23;;;3.90;99.90;;;;;;5032722;28;20268;-55
2024/01/30 01:10:34;;;;;;;6.27;4.60;;;3.90;99.90;;;;;;5032807;28;20202;-55
2024/01/30 01:13:02;;;;;;;6.33;4.40;;;4.00;99.90;;;;;;5032472;28;20237;-54
2024/01/30 01:15:28;;;;;;;5.47;4.50;;;4.00;99.90;;;;;;5033075;28;20202;-52
2024/01/30 01:17:55;;;;;;;4.90;4.10;;;4.00;99.90;;;;;;5032099;28;20206;-55
2024/01/30 01:20:22;;;;;;;5.83;4.37;;;4.10;99.90;;;;;;5032490;28;20206;-55
2024/01/30 01:22:48;;;;;;;7.30;4.67;;;4.10;99.90;;;;;;5033435;28;20226;-52
2024/01/30 01:25:15;;;;;;;7.43;5.03;;;4.10;99.90;;;;;;5032281;28;20656;-53
2024/01/30 01:27:43;;;;;;;5.20;4.23;;;4.20;99.90;;;;;;5032073;28;20213;-53
2024/01/30 01:30:18;;;;;;;5.70;4.70;;;4.20;99.90;;;;;;5032110;28;20240;-53
2024/01/30 01:32:50;;;;;;;6.13;4.47;;;4.30;99.90;;;;;;5025108;28;20244;-53
2024/01/30 01:35:16;;;;;;;4.93;4.33;;;4.30;99.90;;;;;;5032235;28;20592;-53
2024/01/30 01:37:43;;;;;;;7.83;5.23;;;4.40;99.90;;;;;;5032204;28;20206;-53
2024/01/30 01:40:10;;;;;;;5.63;4.27;;;4.50;99.90;;;;;;5032785;28;20418;-53
2024/01/30 01:42:37;;;;;;;6.03;4.27;;;4.50;99.90;;;;;;5024012;28;20226;-52
2024/01/30 01:45:04;;;;;;;6.93;4.70;;;4.50;99.90;;;;;;5032060;28;20213;-53
2024/01/30 01:47:32;;;;;;;5.93;4.40;;;4.60;99.90;;;;;;5032094;28;20210;-55
2024/01/30 01:49:59;;;;;;;7.80;4.47;;;4.60;99.90;;;;;;5032108;28;20206;-52
2024/01/30 01:52:26;;;;;;;9.20;4.77;;;4.60;99.90;;;;;;5031911;28;20309;-53
2024/01/30 01:54:53;;;;;;;6.50;4.13;;;4.60;99.90;;;;;;5032207;28;20229;-52
2024/01/30 01:57:20;;;;;;;5.37;3.93;;;4.70;99.90;;;;;;5031682;28;20210;-54
2024/01/30 01:59:47;;;;;;;6.63;4.33;;;4.70;99.90;;;;;;5031907;28;20606;-55
2024/01/30 02:02:15;;;;;;;4.50;3.73;;;4.70;99.90;;;;;;5031735;28;20699;-52
2024/01/30 02:04:43;;;;;;;8.07;3.90;;;4.70;99.90;;;;;;5031850;28;20226;-53
2024/01/30 02:07:11;;;;;;;5.73;3.87;;;4.70;99.90;;;;;;5031604;28;20206;-53
2024/01/30 02:09:38;;;;;;;8.23;4.60;;;4.70;99.90;;;;;;5024035;28;20213;-54
2024/01/30 02:12:05;;;;;;;4.97;3.93;;;4.70;99.90;;;;;;5031844;28;20213;-53
2024/01/30 02:14:32;;;;;;;5.10;4.30;;;4.70;99.90;;;;;;5031780;28;20292;-52
2024/01/30 02:16:58;;;;;;;6.77;4.20;;;4.70;99.90;;;;;;5032937;28;20264;-53
2024/01/30 02:19:25;;;;;;;5.60;4.00;;;4.60;99.90;;;;;;5035826;28;20765;-53
2024/01/30 02:21:53;;;;;;;5.00;4.37;;;4.60;99.90;;;;;;5035845;28;20210;-53
2024/01/30 02:24:20;;;;;;;5.83;4.50;;;4.60;99.90;;;;;;5035337;28;20743;-54
2024/01/30 02:26:47;;;;;;;5.20;3.90;;;4.60;99.90;;;;;;5035535;28;20206;-53
2024/01/30 02:29:13;;;;;;;7.27;4.13;;;4.70;99.90;;;;;;5035695;28;20213;-53
2024/01/30 02:31:40;;;;;;;5.30;3.90;;;4.70;99.90;;;;;;5035727;28;20455;-53
2024/01/30 02:34:06;;;;;;;5.27;4.07;;;4.70;99.90;;;;;;5035646;28;20226;-54
2024/01/30 02:36:33;;;;;;;7.70;4.27;;;4.70;99.90;;;;;;5035180;28;20202;-53
2024/01/30 02:39:01;;;;;;;5.90;4.30;;;4.70;99.90;;;;;;5035685;28;20340;-53
2024/01/30 02:41:28;;;;;;;6.17;4.40;;;4.70;99.90;;;;;;5035471;28;20214;-53
2024/01/30 02:43:55;;;;;;;5.43;4.17;;;4.60;99.90;;;;;;5035457;28;20222;-53
2024/01/30 02:46:21;;;;;;;5.43;4.40;;;4.60;99.90;;;;;;5034930;28;20217;-53
2024/01/30 02:48:48;;;;;;;6.50;4.47;;;4.60;99.90;;;;;;5035269;28;20206;-53
2024/01/30 02:51:14;;;;;;;6.37;4.27;;;4.60;99.90;;;;;;5034845;28;20263;-56
2024/01/30 02:53:41;;;;;;;7.57;4.67;;;4.60;99.90;;;;;;5034992;28;20222;-53
2024/01/30 02:56:10;;;;;;;5.90;4.30;;;4.50;99.90;;;;;;5035468;28;20206;-54
2024/01/30 02:58:35;;;;;;;5.00;4.00;;;4.50;99.90;;;;;;5034712;28;20206;-53
2024/01/30 03:01:02;;;;;;;4.60;3.90;;;4.50;99.90;;;;;;5035138;28;20584;-53
2024/01/30 03:03:29;;;;;;;5.93;4.23;;;4.60;99.90;;;;;;5034695;28;20260;-53
2024/01/30 03:05:55;;;;;;;5.40;4.00;;;4.60;99.90;;;;;;5035369;28;20214;-53
2024/01/30 03:08:22;;;;;;;6.13;4.47;;;4.60;99.90;;;;;;5034538;28;20202;-53
2024/01/30 03:10:49;;;;;;;5.40;4.17;;;4.60;99.90;;;;;;5035109;28;20280;-55
2024/01/30 03:13:17;;;;;;;6.83;4.67;;;4.50;99.90;;;;;;5034810;28;20711;-54
2024/01/30 03:15:44;;;;;;;5.63;4.50;;;4.60;99.90;;;;;;5035051;28;20207;-54
2024/01/30 03:18:11;;;;;;;6.87;4.87;;;4.60;99.90;;;;;;5034727;28;20215;-56
2024/01/30 03:20:38;;;;;;;5.90;4.70;;;4.60;99.90;;;;;;5035017;28;20237;-53
2024/01/30 03:23:05;;;;;;;6.70;4.87;;;4.50;99.90;;;;;;5034808;28;20333;-53
2024/01/30 03:25:32;;;;;;;6.27;5.00;;;4.50;99.90;;;;;;5034876;28;20211;-53
2024/01/30 03:27:58;;;;;;;6.83;5.43;;;4.50;99.90;;;;;;5034409;28;20210;-53
2024/01/30 03:30:26;;;;;;;9.23;5.47;;;4.50;99.90;;;;;;5034456;28;20206;-53
2024/01/30 03:32:53;;;;;;;7.57;5.63;;;4.50;99.90;;;;;;5034483;28;20427;-53
2024/01/30 03:35:20;;;;;;;7.33;5.40;;;4.40;99.90;;;;;;5034247;28;20202;-54
2024/01/30 03:37:47;;;;;;;8.67;5.93;;;4.40;99.90;;;;;;5034080;28;20202;-53
2024/01/30 03:40:14;;;;;;;10.93;7.80;;;4.40;99.90;;;;;;5034857;28;20207;-53
2024/01/30 03:42:40;;;;;;;6.67;5.47;;;4.30;99.90;;;;;;5034509;28;20237;-53
2024/01/30 03:45:08;;;;;;;7.73;6.40;;;4.20;99.90;;;;;;5034328;28;20226;-53
2024/01/30 03:47:36;;;;;;;9.20;6.00;;;4.10;99.90;;;;;;5034285;28;20632;-53
2024/01/30 03:50:04;;;;;;;8.87;5.70;;;4.10;99.90;;;;;;5034243;28;20252;-53
2024/01/30 03:52:31;;;;;;;9.53;5.73;;;4.10;99.90;;;;;;5034331;28;20210;-53
2024/01/30 03:54:58;;;;;;;7.97;5.40;;;4.00;99.90;;;;;;5034567;28;20198;-53
2024/01/30 03:57:24;;;;;;;8.93;6.20;;;4.00;99.90;;;;;;5033734;28;20252;-54
2024/01/30 03:59:51;;;;;;;8.47;6.07;;;4.00;99.90;;;;;;5033882;28;20217;-53
2024/01/30 04:02:18;;;;;;;8.10;5.93;;;4.00;99.90;;;;;;5033783;28;20643;-53
2024/01/30 04:04:46;;;;;;;8.33;5.93;;;4.00;99.90;;;;;;5034238;28;20329;-53
2024/01/30 04:07:13;;;;;;;8.50;6.63;;;4.00;99.90;;;;;;5033670;28;20253;-53
2024/01/30 04:09:40;;;;;;;8.30;5.90;;;3.90;99.90;;;;;;5033756;28;20209;-53
2024/01/30 04:12:07;;;;;;;8.80;6.37;;;4.00;99.90;;;;;;5034043;28;20252;-54
2024/01/30 04:14:35;;;;;;;10.27;6.73;;;3.90;99.90;;;;;;5033730;28;20225;-53
2024/01/30 04:17:02;;;;;;;11.13;6.80;;;3.90;99.90;;;;;;5033986;28;20297;-54
2024/01/30 04:19:28;;;;;;;8.40;6.57;;;3.80;99.90;;;;;;5033629;28;20214;-55
2024/01/30 04:21:56;;;;;;;8.93;6.20;;;3.80;99.90;;;;;;5033860;28;20202;-53
2024/01/30 04:24:23;;;;;;;10.03;6.17;;;3.90;99.90;;;;;;5033741;28;20230;-54
2024/01/30 04:26:49;;;;;;;7.97;5.80;;;3.80;99.90;;;;;;5033451;28;20202;-53
2024/01/30 04:29:16;;;;;;;6.70;5.80;;;3.80;99.90;;;;;;5033593;28;20260;-55
2024/01/30 04:31:43;;;;;;;6.70;5.30;;;3.80;99.90;;;;;;5034017;28;20202;-54
2024/01/30 04:34:09;;;;;;;7.80;5.30;;;3.80;99.90;;;;;;5033435;28;20226;-53
2024/01/30 04:36:36;;;;;;;8.93;6.30;;;3.80;99.90;;;;;;5032935;28;20240;-53
2024/01/30 04:39:04;;;;;;;6.63;4.90;;;3.80;99.90;;;;;;5032758;28;20672;-56
2024/01/30 04:41:32;;;;;;;7.43;5.17;;;3.70;99.90;;;;;;5033461;28;20289;-54
2024/01/30 04:43:58;;;;;;;8.00;5.83;;;3.70;99.90;;;;;;5032692;28;20257;-53
2024/01/30 04:46:25;;;;;;;9.20;5.90;;;3.70;99.90;;;;;;5032434;28;20591;-54
2024/01/30 04:48:52;;;;;;;10.17;5.63;;;3.70;99.90;;;;;;5032699;28;20218;-53
2024/01/30 04:51:18;;;;;;;6.17;4.87;;;3.70;99.90;;;;;;5032931;28;20256;-53
2024/01/30 04:53:45;;;;;;;8.00;4.60;;;3.70;99.90;;;;;;5032815;28;20222;-54
2024/01/30 04:56:13;;;;;;;6.17;4.60;;;3.60;99.90;;;;;;5032809;28;20219;-54
2024/01/30 04:58:40;;;;;;;6.27;4.87;;;3.60;99.90;;;;;;5032281;28;20210;-53
2024/01/30 05:01:06;;;;;;;6.33;4.80;;;3.50;99.90;;;;;;5032655;28;20260;-53
2024/01/30 05:03:34;;;;;;;9.57;5.13;;;3.50;99.90;;;;;;5032261;28;20283;-55
2024/01/30 05:06:01;;;;;;;5.27;4.47;;;3.50;99.90;;;;;;5032726;28;20523;-52
2024/01/30 05:08:28;;;;;;;6.23;4.87;;;3.60;99.90;;;;;;5032211;28;20206;-53
2024/01/30 05:10:54;;;;;;;6.27;4.70;;;3.60;99.90;;;;;;5032538;28;20260;-53
2024/01/30 05:13:22;;;;;;;6.30;5.00;;;3.70;99.90;;;;;;5032029;28;20655;-53
2024/01/30 05:15:49;;;;;;;6.97;5.17;;;3.70;99.90;;;;;;5032396;28;20664;-54
2024/01/30 05:18:15;;;;;;;6.77;4.90;;;3.70;99.90;;;;;;5032191;28;20666;-55
2024/01/30 05:20:42;;;;;;;6.30;4.93;;;3.80;99.90;;;;;;5032654;28;20588;-53
2024/01/30 05:23:09;;;;;;;7.13;4.80;;;3.80;99.90;;;;;;5032591;28;20271;-53
2024/01/30 05:25:35;;;;;;;6.10;4.70;;;3.80;99.90;;;;;;5032409;28;20218;-55
2024/01/30 05:28:02;;;;;;;6.60;4.93;;;3.90;99.90;;;;;;5032172;28;20736;-54
2024/01/30 05:30:30;;;;;;;6.10;5.03;;;4.00;99.90;;;;;;5032586;28;20229;-53
2024/01/30 05:32:57;;;;;;;6.63;4.47;;;4.00;99.90;;;;;;5032348;28;20229;-53
2024/01/30 05:35:24;;;;;;;6.67;4.93;;;4.10;99.90;;;;;;5032236;28;20205;-52
2024/01/30 05:37:50;;;;;;;5.93;4.87;;;4.10;99.90;;;;;;5032310;28;20210;-53
2024/01/30 05:40:17;;;;;;;6.60;5.00;;;4.10;99.90;;;;;;5032339;28;20289;-55
2024/01/30 05:42:44;;;;;;;6.97;4.83;;;4.10;99.90;;;;;;5023891;28;20229;-55
2024/01/30 05:45:11;;;;;;;7.63;5.07;;;4.10;99.90;;;;;;5032393;28;20228;-55
2024/01/30 05:47:39;;;;;;;5.60;4.57;;;4.20;99.90;;;;;;5031964;28;20202;-53
2024/01/30 05:50:07;;;;;;;7.03;4.60;;;4.10;99.90;;;;;;5031876;28;20206;-54
2024/01/30 05:52:34;;;;;;;7.13;4.87;;;4.20;99.90;;;;;;5031510;28;20267;-55
2024/01/30 05:55:01;;;;;;;6.93;4.80;;;4.20;99.90;;;;;;5031775;28;20229;-53
2024/01/30 05:57:28;;;;;;;5.67;4.50;;;4.20;99.90;;;;;;5031343;28;20708;-53
2024/01/30 05:59:54;;;;;;;6.30;4.50;;;4.20;99.90;;;;;;5033111;28;20209;-54
2024/01/30 06:02:21;;;;;;;8.50;5.10;;;4.30;99.90;;;;;;5031722;28;20202;-54
2024/01/30 06:04:49;;;;;;;7.47;5.10;;;4.30;99.90;;;;;;5032611;28;20221;-53
2024/01/30 06:07:17;;;;;;;8.07;5.27;;;4.30;99.90;;;;;;5031613;28;20294;-53
2024/01/30 06:09:44;;;;;;;15.07;5.37;;;4.30;99.90;;;;;;5032478;28;20582;-53
2024/01/30 06:12:11;;;;;;;5.93;4.73;;;4.30;99.90;;;;;;5032701;28;20469;-52
2024/01/30 06:14:38;;;;;;;6.20;4.83;;;4.30;99.90;;;;;;5032306;28;20222;-53
2024/01/30 06:17:05;;;;;;;8.23;5.30;;;4.30;99.90;;;;;;5032100;28;20202;-55
2024/01/30 06:19:32;;;;;;;5.40;4.33;;;4.30;99.90;;;;;;5032128;28;20288;-53
2024/01/30 06:22:00;;;;;;;6.93;4.83;;;4.30;99.90;;;;;;5031682;28;20481;-53
2024/01/30 06:24:27;;;;;;;6.80;5.20;;;4.40;99.90;;;;;;5031257;28;20230;-53
2024/01/30 06:26:54;;;;;;;8.57;5.23;;;4.30;99.90;;;;;;5031454;28;20202;-53
2024/01/30 06:29:21;;;;;;;6.47;5.00;;;4.40;99.90;;;;;;5031050;28;20410;-53
2024/01/30 06:31:47;;;;;;;6.43;4.90;;;4.40;99.90;;;;;;5030733;28;20204;-54
2024/01/30 06:34:14;;;;;;;5.73;4.50;;;4.40;99.90;;;;;;5030620;28;20226;-53
2024/01/30 06:36:40;;;;;;;6.10;5.10;;;4.40;99.90;;;;;;5030808;28;20198;-52
2024/01/30 06:39:08;;;;;;;7.33;5.00;;;4.50;99.90;;;;;;5031589;28;20202;-54
2024/01/30 06:41:35;;;;;;;7.67;5.77;;;4.50;99.90;;;;;;5031275;28;20214;-55
2024/01/30 06:44:03;;;;;;;8.23;5.20;;;4.50;99.90;;;;;;5031026;28;20222;-55
2024/01/30 06:46:30;;;;;;;8.37;6.30;;;4.60;99.90;;;;;;5030264;28;20636;-53
2024/01/30 06:48:57;;;;;;;10.60;5.60;;;4.60;99.90;;;;;;5030500;28;20233;-52
2024/01/30 06:51:23;;;;;;;8.97;5.63;;;4.70;99.90;;;;;;5030100;28;20606;-54
2024/01/30 06:53:50;;;;;;;9.20;5.43;;;4.70;99.90;;;;;;5030491;28;20605;-54
2024/01/30 06:56:20;;;;;;;12.37;8.17;;;4.70;99.90;;;;;;5031130;28;20574;-52
2024/01/30 06:58:47;;;;;;;11.60;6.57;;;4.70;99.90;;;;;;5030945;28;20305;-52
2024/01/30 07:01:14;;;;;;;9.17;6.20;;;4.70;99.90;;;;;;5031019;28;20215;-53
2024/01/30 07:03:41;;;;;;;8.73;6.20;;;4.70;99.90;;;;;;5032625;28;20233;-54
2024/01/30 07:06:08;;;;;;;7.23;5.03;;;4.60;99.90;;;;;;5034722;28;20225;-54
2024/01/30 07:08:35;;;;;;;8.07;5.33;;;4.60;99.90;;;;;;5034804;28;20217;-54
2024/01/30 07:11:01;;;;;;;6.57;5.23;;;4.60;99.90;;;;;;5034575;28;20202;-53
2024/01/30 07:13:30;;;;;;;6.07;5.07;;;4.60;99.90;;;;;;5034216;28;20218;-54
2024/01/30 07:15:56;;;;;;;7.97;5.50;;;4.60;99.90;;;;;;5034449;28;20209;-54
2024/01/30 07:18:23;;;;;;;7.30;5.67;;;4.60;99.90;;;;;;5033914;28;20210;-57
2024/01/30 07:20:49;;;;;;;9.50;5.50;;;4.60;99.90;;;;;;5034651;28;20288;-58
2024/01/30 07:23:17;;;;;;;11.30;6.70;;;4.70;99.90;;;;;;5034087;28;20690;-56
2024/01/30 07:25:44;;;;;;;8.37;5.83;;;4.70;99.90;;;;;;5034304;28;20218;-57
2024/01/30 07:28:12;;;;;;;8.23;5.67;;;4.80;99.90;;;;;;5033777;28;20650;-57
2024/01/30 07:30:40;;;;;;;9.40;5.60;;;4.90;99.90;;;;;;5033956;28;20301;-57
2024/01/30 07:33:06;;;;;;;11.37;5.70;;;5.00;99.90;;;;;;5034164;28;20230;-57
2024/01/30 07:35:33;;;;;;;8.07;5.70;;;5.10;99.90;;;;;;5034095;28;20210;-58
2024/01/30 07:38:00;;;;;;;11.67;7.13;;;5.20;99.90;;;;;;5033818;28;20206;-58
2024/01/30 07:40:26;;;;;;;16.93;12.47;;;5.30;99.90;;;;;;5033795;28;20672;-56
2024/01/30 07:42:54;;;;;;;10.07;7.03;;;5.30;99.90;;;;;;5033874;28;20252;-58
2024/01/30 07:45:24;;;;;;;7.53;5.50;;;5.30;99.90;;;;;;5033665;28;20214;-58
2024/01/30 07:47:52;;;;;;;9.17;5.93;;;5.30;99.90;;;;;;5026288;28;20212;-56
2024/01/30 07:50:18;;;;;;;10.60;5.83;;;5.30;99.90;;;;;;5033931;28;20210;-58
2024/01/30 07:52:45;;;;;;;8.30;5.93;;;5.40;99.90;;;;;;5033565;28;20309;-58
2024/01/30 07:55:12;;;;;;;50.80;37.60;;;5.40;99.90;;;;;;5033655;28;20229;-56
2024/01/30 07:57:40;;;;;;;13.00;8.90;;;5.50;99.90;;;;;;5033147;28;20206;-57
2024/01/30 08:00:07;;;;;;;11.90;7.00;;;5.50;99.90;;;;;;5033283;28;20210;-57
2024/01/30 08:02:34;;;;;;;11.17;6.77;;;5.50;99.90;;;;;;5033387;28;20202;-57
2024/01/30 08:05:02;;;;;;;25.87;19.10;;;5.50;99.90;;;;;;5033505;28;20296;-56
2024/01/30 08:07:29;;;;;;;14.77;10.30;;;5.60;99.90;;;;;;5033062;28;20206;-56
2024/01/30 08:09:56;;;;;;;10.27;6.53;;;5.80;99.90;;;;;;5033539;28;20202;-56
2024/01/30 08:12:22;;;;;;;10.03;6.37;;;5.80;99.90;;;;;;5033309;28;20329;-57
2024/01/30 08:14:49;;;;;;;9.40;6.37;;;5.90;99.90;;;;;;5032316;28;20205;-56
2024/01/30 08:17:16;;;;;;;8.33;6.33;;;6.00;99.90;;;;;;5033264;28;20208;-57
2024/01/30 08:19:42;;;;;;;12.33;5.90;;;6.00;99.90;;;;;;5033711;28;20218;-57
2024/01/30 08:22:10;;;;;;;6.63;5.33;;;6.20;99.90;;;;;;5033278;28;20225;-56
2024/01/30 08:24:37;;;;;;;8.73;6.27;;;6.20;99.90;;;;;;5033331;28;20591;-55
2024/01/30 08:27:05;;;;;;;7.73;5.87;;;6.40;99.90;;;;;;5032755;28;20617;-57
2024/01/30 08:29:31;;;;;;;8.37;5.77;;;6.50;99.90;;;;;;5033407;28;20203;-56
2024/01/30 08:31:59;;;;;;;10.37;6.87;;;6.60;99.90;;;;;;5032905;28;20202;-57
2024/01/30 08:34:25;;;;;;;11.27;6.40;;;6.70;99.90;;;;;;5032626;28;20608;-56
2024/01/30 08:36:52;;;;;;;13.03;6.07;;;6.90;99.90;;;;;;5032666;28;20541;-57
2024/01/30 08:39:20;;;;;;;9.53;6.67;;;7.00;99.90;;;;;;5032708;28;20597;-58
2024/01/30 08:41:47;;;;;;;8.87;5.77;;;7.20;99.90;;;;;;5032450;28;20225;-57
2024/01/30 08:44:13;;;;;;;8.23;6.20;;;7.30;99.90;;;;;;5032650;28;20222;-56
2024/01/30 08:46:40;;;;;;;6.73;5.80;;;7.40;99.90;;;;;;5032827;28;20305;-56
2024/01/30 08:49:07;;;;;;;7.97;5.77;;;7.60;99.90;;;;;;5032609;28;20578;-61
2024/01/30 08:51:34;;;;;;;11.17;5.97;;;7.80;99.90;;;;;;5032116;28;20261;-59
2024/01/30 08:54:01;;;;;;;10.70;6.03;;;7.90;99.90;;;;;;5032504;28;20312;-60
2024/01/30 08:56:29;;;;;;;10.17;7.00;;;8.20;99.90;;;;;;5031933;28;20248;-59
2024/01/30 08:58:56;;;;;;;9.87;5.83;;;8.40;99.90;;;;;;5032196;28;20598;-58
2024/01/30 09:01:22;;;;;;;26.83;19.27;;;8.50;99.90;;;;;;5032714;28;20236;-59
2024/01/30 09:03:49;;;;;;;10.70;8.87;;;8.70;99.90;;;;;;5023908;28;20352;-59
2024/01/30 09:06:16;;;;;;;13.20;6.90;;;9.00;99.90;;;;;;5032098;28;20214;-59
2024/01/30 09:08:42;;;;;;;14.20;9.53;;;9.30;99.90;;;;;;5031517;28;20202;-59
2024/01/30 09:11:14;;;;;;;9.97;7.57;;;9.50;99.90;;;;;;5031972;28;20203;-59
2024/01/30 09:13:43;;;;;;;13.37;9.73;;;9.80;99.90;;;;;;5031708;28;20226;-59
2024/01/30 09:16:10;;;;;;;20.27;12.77;;;9.90;99.90;;;;;;5031725;28;20198;-59
2024/01/30 09:18:36;;;;;;;9.27;6.30;;;10.00;99.90;;;;;;5031623;28;20206;-59
2024/01/30 09:21:03;;;;;;;10.40;6.43;;;10.00;99.90;;;;;;5032000;28;20276;-59
2024/01/30 09:23:30;;;;;;;10.37;5.80;;;9.90;99.90;;;;;;5031704;28;20222;-59
2024/01/30 09:25:57;;;;;;;8.30;6.03;;;9.80;99.90;;;;;;5032124;28;20222;-60
2024/01/30 09:28:24;;;;;;;6.87;5.70;;;9.80;99.90;;;;;;5031685;28;20280;-59
2024/01/30 09:30:52;;;;;;;11.13;6.27;;;9.90;99.90;;;;;;5023869;28;20198;-58
2024/01/30 09:33:18;;;;;;;7.37;5.27;;;10.00;99.90;;;;;;5031543;28;20608;-58
2024/01/30 09:35:46;;;;;;;11.30;5.20;;;10.00;99.90;;;;;;5031665;28;20285;-58
2024/01/30 09:38:13;;;;;;;6.17;4.90;;;10.20;99.90;;;;;;5031938;28;20268;-59
2024/01/30 09:40:41;;;;;;;8.93;5.17;;;10.30;99.90;;;;;;5031801;28;20213;-59
2024/01/30 09:43:08;;;;;;;5.87;4.37;;;10.40;99.90;;;;;;5031404;28;20226;-59
2024/01/30 09:45:36;;;;;;;10.90;6.33;;;10.50;99.90;;;;;;5031591;28;20708;-57
2024/01/30 09:48:05;;;;;;;12.60;6.20;;;10.50;99.90;;;;;;5031629;28;20206;-58
2024/01/30 09:50:32;;;;;;;9.30;5.70;;;10.30;99.90;;;;;;5031622;28;20668;-59
2024/01/30 09:53:00;;;;;;;8.90;5.70;;;10.00;99.90;;;;;;5031491;28;20758;-58
2024/01/30 09:55:27;;;;;;;9.33;6.03;;;10.10;99.90;;;;;;5031468;28;20203;-59
2024/01/30 09:57:54;;;;;;;8.97;5.87;;;10.20;99.90;;;;;;5031454;28;20198;-59
2024/01/30 10:00:22;;;;;;;9.90;5.93;;;10.30;99.90;;;;;;5031725;28;20202;-59
2024/01/30 10:02:49;;;;;;;7.57;5.20;;;10.40;99.90;;;;;;5031456;28;20274;-58
2024/01/30 10:05:20;;;;;;;6.87;5.47;;;10.30;99.90;;;;;;5031632;28;20297;-56
2024/01/30 10:07:58;;;;;;;7.20;5.93;;;10.20;99.90;;;;;;5031524;28;20285;-56
2024/01/30 10:10:25;;;;;;;9.30;5.67;;;10.20;99.90;;;;;;5031564;28;20240;-58
2024/01/30 10:12:52;;;;;;;9.07;5.83;;;10.30;99.90;;;;;;5023443;28;20313;-55
2024/01/30 10:15:19;;;;;;;8.10;5.60;;;10.50;99.90;;;;;;5031521;28;20256;-55
2024/01/30 10:17:46;;;;;;;7.17;5.13;;;10.60;99.90;;;;;;5030781;28;20297;-56
2024/01/30 10:20:13;;;;;;;9.37;5.70;;;10.70;99.90;;;;;;5031244;28;20206;-55
2024/01/30 10:22:44;;;;;;;8.20;5.40;;;10.80;99.90;;;;;;5031357;28;20226;-55
2024/01/30 10:25:11;;;;;;;6.50;5.17;;;10.90;99.90;;;;;;5031471;28;20214;-55
2024/01/30 10:27:37;;;;;;;8.67;5.53;;;11.20;99.90;;;;;;5031086;28;20206;-58
2024/01/30 10:30:05;;;;;;;7.17;5.40;;;11.40;99.90;;;;;;5031233;28;20199;-56
2024/01/30 10:32:32;;;;;;;8.63;5.83;;;11.50;99.90;;;;;;5031104;28;20202;-57
2024/01/30 10:34:58;;;;;;;6.77;5.37;;;11.50;99.90;;;;;;5031389;28;20202;-57
2024/01/30 10:37:27;;;;;;;7.63;5.70;;;11.70;99.90;;;;;;5031455;28;20206;-56
2024/01/30 10:39:56;;;;;;;9.23;5.80;;;11.90;99.90;;;;;;5027464;28;20611;-56
2024/01/30 10:42:27;;;;;;;7.33;5.63;;;12.10;99.90;;;;;;5035035;28;20206;-56
2024/01/30 10:45:00;;;;;;;9.13;5.50;;;12.40;99.90;;;;;;5027186;28;20723;-55
2024/01/30 10:47:29;;;;;;;9.27;5.83;;;12.40;99.90;;;;;;5034518;28;20229;-57
2024/01/30 10:49:56;;;;;;;10.77;5.73;;;12.40;99.90;;;;;;5035733;28;20203;-56
2024/01/30 10:52:25;;;;;;;11.03;6.13;;;12.40;99.90;;;;;;5034726;28;20209;-56
2024/01/30 10:54:52;;;;;;;8.20;4.93;;;12.60;99.90;;;;;;5034902;28;20224;-56
2024/01/30 10:57:23;;;;;;;10.67;5.90;;;12.80;99.90;;;;;;5034604;28;20285;-55
2024/01/30 10:59:52;;;;;;;8.80;5.43;;;13.10;99.90;;;;;;5034885;28;20202;-59
2024/01/30 11:02:19;;;;;;;10.33;5.37;;;13.40;99.90;;;;;;5034513;28;20202;-56
2024/01/30 11:04:47;;;;;;;7.43;5.20;;;13.50;99.90;;;;;;5034558;28;20214;-59
2024/01/30 11:07:17;;;;;;;8.73;5.60;;;13.70;99.90;;;;;;5034305;28;20265;-58
2024/01/30 11:09:50;;;;;;;7.83;5.00;;;13.80;99.90;;;;;;5034357;28;20202;-56
2024/01/30 11:12:17;;;;;;;6.07;4.57;;;14.10;99.90;;;;;;5034661;28;20210;-55
2024/01/30 11:14:45;;;;;;;8.13;4.67;;;14.40;99.90;;;;;;5034514;28;20726;-55
2024/01/30 11:17:13;;;;;;;6.57;4.27;;;14.50;99.90;;;;;;5034289;28;20581;-56
2024/01/30 11:19:39;;;;;;;8.80;4.80;;;14.30;99.90;;;;;;5034449;28;20296;-56
2024/01/30 11:22:07;;;;;;;10.23;5.03;;;14.10;99.90;;;;;;5034399;28;20210;-56
2024/01/30 11:24:40;;;;;;;7.43;4.77;;;13.80;99.90;;;;;;5034232;28;20745;-55
2024/01/30 11:27:10;;;;;;;11.87;4.63;;;13.50;99.90;;;;;;5034175;28;20305;-57
2024/01/30 11:29:36;;;;;;;7.13;4.70;;;13.40;99.90;;;;;;5034462;28;20234;-55
2024/01/30 11:32:06;;;;;;;15.27;5.40;;;13.40;99.90;;;;;;5034773;28;20394;-55
2024/01/30 11:34:34;;;;;;;7.93;4.93;;;13.40;99.90;;;;;;5034001;28;20583;-55
2024/01/30 11:37:10;;;;;;;8.23;4.80;;;13.30;99.90;;;;;;5034042;28;20285;-57
2024/01/30 11:39:38;;;;;;;8.53;5.17;;;13.40;99.90;;;;;;5033982;28;20616;-55
2024/01/30 11:42:08;;;;;;;7.53;5.10;;;13.50;99.90;;;;;;5034145;28;20229;-55
2024/01/30 11:44:35;;;;;;;9.23;5.30;;;13.60;99.90;;;;;;5033811;28;20258;-58
2024/01/30 11:47:03;;;;;;;7.40;5.27;;;13.50;99.90;;;;;;5033639;28;20264;-55
2024/01/30 11:49:31;;;;;;;8.33;6.00;;;13.60;99.90;;;;;;5034093;28;20208;-55
2024/01/30 11:51:58;;;;;;;7.30;5.67;;;13.70;99.90;;;;;;5033995;28;20278;-56
2024/01/30 11:54:25;;;;;;;7.57;5.57;;;13.80;99.90;;;;;;5033845;28;20606;-55
2024/01/30 11:56:51;;;;;;;10.03;5.77;;;13.80;99.90;;;;;;5033692;28;20202;-57
2024/01/30 11:59:18;;;;;;;9.40;6.13;;;13.70;99.90;;;;;;5034365;28;20198;-56
2024/01/30 12:01:45;;;;;;;9.57;6.10;;;13.60;99.90;;;;;;5034740;28;20215;-56
2024/01/30 12:04:11;;;;;;;7.73;5.97;;;13.60;99.90;;;;;;5033982;28;20225;-57
2024/01/30 12:06:40;;;;;;;8.57;5.20;;;13.70;99.90;;;;;;5033849;28;20226;-57
2024/01/30 12:09:08;;;;;;;8.73;5.10;;;13.80;99.90;;;;;;5033948;28;20202;-55
2024/01/30 12:11:44;;;;;;;5.97;3.97;;;13.90;99.90;;;;;;5033518;28;20260;-55
2024/01/30 12:14:11;;;;;;;12.73;5.33;;;13.80;99.90;;;;;;5033357;28;20637;-55
2024/01/30 12:16:38;;;;;;;7.40;4.83;;;13.80;99.90;;;;;;5033344;28;20237;-56
2024/01/30 12:19:05;;;;;;;9.70;5.30;;;13.80;99.90;;;;;;5033593;28;20202;-55
2024/01/30 12:21:31;;;;;;;6.73;4.40;;;13.90;99.90;;;;;;5033306;28;20198;-56
2024/01/30 12:24:00;;;;;;;6.10;4.90;;;14.30;99.90;;;;;;5033295;28;20222;-57
2024/01/30 12:26:27;;;;;;;7.22;4.85;;;14.40;99.90;;;;;;5032902;28;20312;-55
2024/01/30 12:28:57;;;;;;;8.27;5.43;;;14.30;99.90;;;;;;5033197;28;20209;-57
2024/01/30 12:31:27;;;;;;;5.65;4.68;;;14.30;99.90;;;;;;5033375;28;20289;-56
2024/01/30 12:33:54;;;;;;;6.03;4.47;;;14.30;99.90;;;;;;5033294;28;20313;-58
2024/01/30 12:36:21;;;;;;;6.63;4.47;;;14.40;99.90;;;;;;5032845;28;20613;-55
2024/01/30 12:38:48;;;;;;;9.07;5.07;;;14.50;99.90;;;;;;5033050;28;20203;-58
2024/01/30 12:41:16;;;;;;;6.72;4.68;;;14.50;99.90;;;;;;5032818;28;20719;-55
2024/01/30 12:43:43;;;;;;;9.07;4.13;;;14.30;99.90;;;;;;5033082;28;20238;-55
2024/01/30 12:46:10;;;;;;;8.57;4.97;;;14.20;99.90;;;;;;5033132;28;20202;-59
2024/01/30 12:48:37;;;;;;;8.38;4.50;;;14.00;99.90;;;;;;5032687;28;20218;-56
2024/01/30 12:51:04;;;;;;;6.90;4.10;;;14.00;99.90;;;;;;5033047;28;20209;-55
2024/01/30 12:53:31;;;;;;;8.50;4.50;;;13.90;99.90;;;;;;5032750;28;20245;-58